sensor_id;sensor_type;location;lat;lon;timestamp;P1;durP1;ratioP1;P2;durP2;ratioP2
19623;SDS011;9959;49.798;9.928;2023-07-20T00:01:52;13.73;;;6.18;;
19623;SDS011;9959;49.798;9.928;2023-07-20T00:04:18;10.63;;;6.13;;
19623;SDS011;9959;49.798;9.928;2023-07-20T00:06:45;10.18;;;5.32;;
19623;SDS011;9959;49.798;9.928;2023-07-20T00:09:12;12.98;;;6.40;;
19623;SDS011;9959;49.798;9.928;2023-07-20T00:11:39;12.63;;;6.07;;
19623;SDS011;9959;49.798;9.928;2023-07-20T00:14:06;11.35;;;6.53;;
19623;SDS011;9959;49.798;9.928;2023-07-20T00:16:33;16.30;;;6.78;;
19623;SDS011;9959;49.798;9.928;2023-07-20T00:19:00;12.43;;;7.55;;
19623;SDS011;9959;49.798;9.928;2023-07-20T00:21:27;11.90;;;7.40;;
19623;SDS011;9959;49.798;9.928;2023-07-20T00:23:54;19.52;;;6.55;;
19623;SDS011;9959;49.798;9.928;2023-07-20T00:26:21;13.15;;;6.20;;
19623;SDS011;9959;49.798;9.928;2023-07-20T00:28:49;12.75;;;6.75;;
19623;SDS011;9959;49.798;9.928;2023-07-20T00:31:17;11.80;;;6.03;;
19623;SDS011;9959;49.798;9.928;2023-07-20T00:33:44;15.23;;;6.65;;
19623;SDS011;9959;49.798;9.928;2023-07-20T00:36:11;12.25;;;6.05;;
19623;SDS011;9959;49.798;9.928;2023-07-20T00:38:38;8.27;;;5.63;;
19623;SDS011;9959;49.798;9.928;2023-07-20T00:41:04;10.73;;;5.68;;
19623;SDS011;9959;49.798;9.928;2023-07-20T00:43:31;11.88;;;5.90;;
19623;SDS011;9959;49.798;9.928;2023-07-20T00:45:58;12.60;;;5.35;;
19623;SDS011;9959;49.798;9.928;2023-07-20T00:48:25;12.63;;;6.25;;
19623;SDS011;9959;49.798;9.928;2023-07-20T00:50:52;10.73;;;5.03;;
19623;SDS011;9959;49.798;9.928;2023-07-20T00:53:19;10.98;;;5.15;;
19623;SDS011;9959;49.798;9.928;2023-07-20T00:55:46;10.95;;;4.72;;
19623;SDS011;9959;49.798;9.928;2023-07-20T00:58:13;8.80;;;4.60;;
19623;SDS011;9959;49.798;9.928;2023-07-20T01:00:40;11.65;;;4.85;;
19623;SDS011;9959;49.798;9.928;2023-07-20T01:03:07;10.35;;;4.95;;
19623;SDS011;9959;49.798;9.928;2023-07-20T01:05:42;12.80;;;4.80;;
19623;SDS011;9959;49.798;9.928;2023-07-20T01:11:35;8.55;;;4.43;;
19623;SDS011;9959;49.798;9.928;2023-07-20T01:14:21;10.07;;;4.40;;
19623;SDS011;9959;49.798;9.928;2023-07-20T01:16:49;9.32;;;4.53;;
19623;SDS011;9959;49.798;9.928;2023-07-20T01:19:19;12.40;;;4.03;;
19623;SDS011;9959;49.798;9.928;2023-07-20T01:33:04;8.60;;;4.22;;
19623;SDS011;9959;49.798;9.928;2023-07-20T01:35:33;9.65;;;4.18;;
19623;SDS011;9959;49.798;9.928;2023-07-20T01:38:03;11.15;;;3.95;;
19623;SDS011;9959;49.798;9.928;2023-07-20T01:40:30;8.00;;;3.95;;
19623;SDS011;9959;49.798;9.928;2023-07-20T01:42:57;14.13;;;3.97;;
19623;SDS011;9959;49.798;9.928;2023-07-20T01:45:24;5.38;;;3.70;;
19623;SDS011;9959;49.798;9.928;2023-07-20T01:47:52;13.25;;;3.83;;
19623;SDS011;9959;49.798;9.928;2023-07-20T01:50:19;12.43;;;3.83;;
19623;SDS011;9959;49.798;9.928;2023-07-20T01:52:46;6.38;;;3.85;;
19623;SDS011;9959;49.798;9.928;2023-07-20T01:55:13;8.68;;;3.42;;
19623;SDS011;9959;49.798;9.928;2023-07-20T01:57:40;10.65;;;3.90;;
19623;SDS011;9959;49.798;9.928;2023-07-20T02:00:07;5.57;;;3.55;;
19623;SDS011;9959;49.798;9.928;2023-07-20T02:02:36;13.52;;;3.75;;
19623;SDS011;9959;49.798;9.928;2023-07-20T02:05:03;9.65;;;3.92;;
19623;SDS011;9959;49.798;9.928;2023-07-20T02:07:30;8.82;;;3.85;;
19623;SDS011;9959;49.798;9.928;2023-07-20T02:09:57;6.53;;;3.83;;
19623;SDS011;9959;49.798;9.928;2023-07-20T02:12:24;12.35;;;3.75;;
19623;SDS011;9959;49.798;9.928;2023-07-20T02:14:51;9.65;;;3.70;;
19623;SDS011;9959;49.798;9.928;2023-07-20T02:17:18;7.40;;;3.97;;
19623;SDS011;9959;49.798;9.928;2023-07-20T02:19:50;12.18;;;3.95;;
19623;SDS011;9959;49.798;9.928;2023-07-20T02:22:21;9.65;;;3.67;;
19623;SDS011;9959;49.798;9.928;2023-07-20T02:24:48;12.63;;;4.57;;
19623;SDS011;9959;49.798;9.928;2023-07-20T02:27:16;9.23;;;4.22;;
19623;SDS011;9959;49.798;9.928;2023-07-20T02:29:43;15.85;;;3.88;;
19623;SDS011;9959;49.798;9.928;2023-07-20T02:32:10;10.10;;;3.78;;
19623;SDS011;9959;49.798;9.928;2023-07-20T02:34:37;10.45;;;3.90;;
19623;SDS011;9959;49.798;9.928;2023-07-20T02:37:05;10.27;;;4.20;;
19623;SDS011;9959;49.798;9.928;2023-07-20T02:39:33;13.50;;;4.55;;
19623;SDS011;9959;49.798;9.928;2023-07-20T02:42:00;7.95;;;4.28;;
19623;SDS011;9959;49.798;9.928;2023-07-20T02:44:27;9.30;;;4.18;;
19623;SDS011;9959;49.798;9.928;2023-07-20T02:46:54;7.65;;;3.92;;
19623;SDS011;9959;49.798;9.928;2023-07-20T02:49:21;9.68;;;3.85;;
19623;SDS011;9959;49.798;9.928;2023-07-20T02:51:48;10.15;;;4.60;;
19623;SDS011;9959;49.798;9.928;2023-07-20T02:54:15;7.97;;;4.13;;
19623;SDS011;9959;49.798;9.928;2023-07-20T02:56:42;10.65;;;4.35;;
19623;SDS011;9959;49.798;9.928;2023-07-20T02:59:09;12.30;;;4.20;;
19623;SDS011;9959;49.798;9.928;2023-07-20T03:01:36;9.00;;;4.38;;
19623;SDS011;9959;49.798;9.928;2023-07-20T03:04:03;12.45;;;3.83;;
19623;SDS011;9959;49.798;9.928;2023-07-20T03:06:30;13.10;;;5.00;;
19623;SDS011;9959;49.798;9.928;2023-07-20T03:08:58;9.85;;;3.90;;
19623;SDS011;9959;49.798;9.928;2023-07-20T03:11:25;13.88;;;4.05;;
19623;SDS011;9959;49.798;9.928;2023-07-20T03:13:51;8.98;;;4.65;;
19623;SDS011;9959;49.798;9.928;2023-07-20T03:16:23;17.27;;;4.22;;
19623;SDS011;9959;49.798;9.928;2023-07-20T03:18:52;11.82;;;5.40;;
19623;SDS011;9959;49.798;9.928;2023-07-20T03:21:19;9.63;;;4.68;;
19623;SDS011;9959;49.798;9.928;2023-07-20T03:23:46;14.40;;;5.05;;
19623;SDS011;9959;49.798;9.928;2023-07-20T03:26:13;11.93;;;4.78;;
19623;SDS011;9959;49.798;9.928;2023-07-20T03:28:40;16.70;;;5.03;;
19623;SDS011;9959;49.798;9.928;2023-07-20T03:31:07;10.50;;;4.93;;
19623;SDS011;9959;49.798;9.928;2023-07-20T03:33:34;9.35;;;4.82;;
19623;SDS011;9959;49.798;9.928;2023-07-20T03:36:01;8.68;;;4.50;;
19623;SDS011;9959;49.798;9.928;2023-07-20T03:38:28;7.88;;;4.35;;
19623;SDS011;9959;49.798;9.928;2023-07-20T03:40:55;11.40;;;4.53;;
19623;SDS011;9959;49.798;9.928;2023-07-20T03:43:24;8.52;;;4.05;;
19623;SDS011;9959;49.798;9.928;2023-07-20T03:45:52;8.00;;;4.70;;
19623;SDS011;9959;49.798;9.928;2023-07-20T03:48:19;7.95;;;4.13;;
19623;SDS011;9959;49.798;9.928;2023-07-20T03:50:48;7.70;;;4.18;;
19623;SDS011;9959;49.798;9.928;2023-07-20T03:53:17;16.85;;;6.03;;
19623;SDS011;9959;49.798;9.928;2023-07-20T03:55:44;8.95;;;4.60;;
19623;SDS011;9959;49.798;9.928;2023-07-20T03:58:15;10.30;;;4.05;;
19623;SDS011;9959;49.798;9.928;2023-07-20T04:00:44;8.27;;;4.40;;
19623;SDS011;9959;49.798;9.928;2023-07-20T04:03:14;14.98;;;3.92;;
19623;SDS011;9959;49.798;9.928;2023-07-20T04:05:43;7.13;;;4.53;;
19623;SDS011;9959;49.798;9.928;2023-07-20T04:08:10;8.48;;;4.47;;
19623;SDS011;9959;49.798;9.928;2023-07-20T04:10:38;5.57;;;3.65;;
19623;SDS011;9959;49.798;9.928;2023-07-20T04:13:05;6.68;;;4.32;;
19623;SDS011;9959;49.798;9.928;2023-07-20T04:15:32;10.10;;;4.63;;
19623;SDS011;9959;49.798;9.928;2023-07-20T04:17:59;10.90;;;4.45;;
19623;SDS011;9959;49.798;9.928;2023-07-20T04:20:27;12.38;;;4.47;;
19623;SDS011;9959;49.798;9.928;2023-07-20T04:22:54;11.05;;;4.55;;
19623;SDS011;9959;49.798;9.928;2023-07-20T04:25:21;9.20;;;4.30;;
19623;SDS011;9959;49.798;9.928;2023-07-20T04:27:48;11.73;;;4.38;;
19623;SDS011;9959;49.798;9.928;2023-07-20T04:30:16;7.45;;;4.05;;
19623;SDS011;9959;49.798;9.928;2023-07-20T04:32:46;8.65;;;4.03;;
19623;SDS011;9959;49.798;9.928;2023-07-20T04:35:17;12.23;;;4.45;;
19623;SDS011;9959;49.798;9.928;2023-07-20T04:38:04;11.73;;;4.20;;
19623;SDS011;9959;49.798;9.928;2023-07-20T04:40:31;8.95;;;3.83;;
19623;SDS011;9959;49.798;9.928;2023-07-20T04:42:58;12.73;;;3.78;;
19623;SDS011;9959;49.798;9.928;2023-07-20T04:45:25;12.45;;;3.90;;
19623;SDS011;9959;49.798;9.928;2023-07-20T04:47:52;13.73;;;4.20;;
19623;SDS011;9959;49.798;9.928;2023-07-20T04:50:19;10.52;;;4.10;;
19623;SDS011;9959;49.798;9.928;2023-07-20T04:52:46;9.25;;;4.55;;
19623;SDS011;9959;49.798;9.928;2023-07-20T04:55:12;9.07;;;4.30;;
19623;SDS011;9959;49.798;9.928;2023-07-20T04:57:39;11.75;;;4.32;;
19623;SDS011;9959;49.798;9.928;2023-07-20T05:00:06;11.07;;;4.90;;
19623;SDS011;9959;49.798;9.928;2023-07-20T05:02:33;14.00;;;4.40;;
19623;SDS011;9959;49.798;9.928;2023-07-20T05:05:00;11.13;;;4.85;;
19623;SDS011;9959;49.798;9.928;2023-07-20T05:07:28;9.60;;;4.15;;
19623;SDS011;9959;49.798;9.928;2023-07-20T05:09:55;9.10;;;5.05;;
19623;SDS011;9959;49.798;9.928;2023-07-20T05:12:22;9.75;;;4.22;;
19623;SDS011;9959;49.798;9.928;2023-07-20T05:14:48;10.90;;;4.93;;
19623;SDS011;9959;49.798;9.928;2023-07-20T05:17:15;10.45;;;4.20;;
19623;SDS011;9959;49.798;9.928;2023-07-20T05:19:42;15.48;;;4.78;;
19623;SDS011;9959;49.798;9.928;2023-07-20T05:22:10;13.57;;;5.00;;
19623;SDS011;9959;49.798;9.928;2023-07-20T05:24:38;11.80;;;4.72;;
19623;SDS011;9959;49.798;9.928;2023-07-20T05:27:05;10.50;;;5.07;;
19623;SDS011;9959;49.798;9.928;2023-07-20T05:29:32;10.38;;;5.28;;
19623;SDS011;9959;49.798;9.928;2023-07-20T05:31:59;10.73;;;4.50;;
19623;SDS011;9959;49.798;9.928;2023-07-20T05:34:26;10.52;;;4.15;;
19623;SDS011;9959;49.798;9.928;2023-07-20T05:36:53;11.05;;;4.43;;
19623;SDS011;9959;49.798;9.928;2023-07-20T05:39:21;7.18;;;4.18;;
19623;SDS011;9959;49.798;9.928;2023-07-20T05:41:48;8.93;;;4.63;;
19623;SDS011;9959;49.798;9.928;2023-07-20T05:44:14;10.73;;;4.38;;
19623;SDS011;9959;49.798;9.928;2023-07-20T05:46:41;7.15;;;4.20;;
19623;SDS011;9959;49.798;9.928;2023-07-20T05:49:22;8.80;;;4.15;;
19623;SDS011;9959;49.798;9.928;2023-07-20T05:51:48;9.40;;;4.40;;
19623;SDS011;9959;49.798;9.928;2023-07-20T05:54:15;10.93;;;4.15;;
19623;SDS011;9959;49.798;9.928;2023-07-20T05:56:42;9.32;;;4.25;;
19623;SDS011;9959;49.798;9.928;2023-07-20T05:59:09;11.30;;;5.18;;
19623;SDS011;9959;49.798;9.928;2023-07-20T06:01:36;12.43;;;3.95;;
19623;SDS011;9959;49.798;9.928;2023-07-20T06:04:03;6.75;;;4.30;;
19623;SDS011;9959;49.798;9.928;2023-07-20T06:06:31;12.00;;;4.45;;
19623;SDS011;9959;49.798;9.928;2023-07-20T06:08:57;7.82;;;4.03;;
19623;SDS011;9959;49.798;9.928;2023-07-20T06:11:24;9.07;;;3.97;;
19623;SDS011;9959;49.798;9.928;2023-07-20T06:13:51;12.75;;;4.55;;
19623;SDS011;9959;49.798;9.928;2023-07-20T06:16:18;7.93;;;4.15;;
19623;SDS011;9959;49.798;9.928;2023-07-20T06:18:45;12.93;;;4.93;;
19623;SDS011;9959;49.798;9.928;2023-07-20T06:21:12;13.93;;;4.85;;
19623;SDS011;9959;49.798;9.928;2023-07-20T06:23:40;7.97;;;4.63;;
19623;SDS011;9959;49.798;9.928;2023-07-20T06:26:07;11.85;;;4.80;;
19623;SDS011;9959;49.798;9.928;2023-07-20T06:28:34;12.15;;;4.10;;
19623;SDS011;9959;49.798;9.928;2023-07-20T06:31:03;11.95;;;4.63;;
19623;SDS011;9959;49.798;9.928;2023-07-20T06:33:30;8.73;;;4.30;;
19623;SDS011;9959;49.798;9.928;2023-07-20T06:35:57;12.48;;;4.38;;
19623;SDS011;9959;49.798;9.928;2023-07-20T06:38:24;10.63;;;3.90;;
19623;SDS011;9959;49.798;9.928;2023-07-20T06:40:54;11.20;;;4.20;;
19623;SDS011;9959;49.798;9.928;2023-07-20T06:43:21;12.23;;;4.13;;
19623;SDS011;9959;49.798;9.928;2023-07-20T06:45:51;14.32;;;4.32;;
19623;SDS011;9959;49.798;9.928;2023-07-20T06:48:20;6.90;;;3.45;;
19623;SDS011;9959;49.798;9.928;2023-07-20T06:50:48;9.98;;;4.00;;
19623;SDS011;9959;49.798;9.928;2023-07-20T06:53:15;7.65;;;3.75;;
19623;SDS011;9959;49.798;9.928;2023-07-20T06:55:42;6.38;;;3.33;;
19623;SDS011;9959;49.798;9.928;2023-07-20T06:58:09;10.48;;;4.32;;
19623;SDS011;9959;49.798;9.928;2023-07-20T07:00:37;8.88;;;3.33;;
19623;SDS011;9959;49.798;9.928;2023-07-20T07:03:04;8.70;;;3.70;;
19623;SDS011;9959;49.798;9.928;2023-07-20T07:05:31;9.32;;;3.38;;
19623;SDS011;9959;49.798;9.928;2023-07-20T07:08:03;7.22;;;3.53;;
19623;SDS011;9959;49.798;9.928;2023-07-20T07:10:31;12.57;;;3.70;;
19623;SDS011;9959;49.798;9.928;2023-07-20T07:12:59;7.68;;;3.38;;
19623;SDS011;9959;49.798;9.928;2023-07-20T07:15:26;5.88;;;3.20;;
19623;SDS011;9959;49.798;9.928;2023-07-20T07:17:54;5.80;;;3.50;;
19623;SDS011;9959;49.798;9.928;2023-07-20T07:20:21;11.95;;;4.20;;
19623;SDS011;9959;49.798;9.928;2023-07-20T07:22:49;9.60;;;3.45;;
19623;SDS011;9959;49.798;9.928;2023-07-20T07:25:18;6.72;;;3.50;;
19623;SDS011;9959;49.798;9.928;2023-07-20T07:27:49;8.13;;;3.50;;
19623;SDS011;9959;49.798;9.928;2023-07-20T07:30:16;11.13;;;3.55;;
19623;SDS011;9959;49.798;9.928;2023-07-20T07:32:42;9.70;;;3.70;;
19623;SDS011;9959;49.798;9.928;2023-07-20T07:35:10;7.75;;;3.63;;
19623;SDS011;9959;49.798;9.928;2023-07-20T07:37:37;11.05;;;3.70;;
19623;SDS011;9959;49.798;9.928;2023-07-20T07:40:22;8.07;;;3.53;;
19623;SDS011;9959;49.798;9.928;2023-07-20T07:42:49;7.68;;;3.65;;
19623;SDS011;9959;49.798;9.928;2023-07-20T07:45:16;5.18;;;3.00;;
19623;SDS011;9959;49.798;9.928;2023-07-20T07:47:43;6.07;;;3.33;;
19623;SDS011;9959;49.798;9.928;2023-07-20T07:50:10;8.68;;;3.15;;
19623;SDS011;9959;49.798;9.928;2023-07-20T07:52:37;6.47;;;3.25;;
19623;SDS011;9959;49.798;9.928;2023-07-20T07:55:04;10.07;;;3.20;;
19623;SDS011;9959;49.798;9.928;2023-07-20T07:57:31;6.38;;;3.28;;
19623;SDS011;9959;49.798;9.928;2023-07-20T07:59:58;11.75;;;3.40;;
19623;SDS011;9959;49.798;9.928;2023-07-20T08:02:25;11.10;;;4.65;;
19623;SDS011;9959;49.798;9.928;2023-07-20T08:04:52;10.25;;;3.03;;
19623;SDS011;9959;49.798;9.928;2023-07-20T08:07:19;9.35;;;3.78;;
19623;SDS011;9959;49.798;9.928;2023-07-20T08:09:46;6.80;;;3.38;;
19623;SDS011;9959;49.798;9.928;2023-07-20T08:12:13;7.00;;;3.17;;
19623;SDS011;9959;49.798;9.928;2023-07-20T08:14:40;7.60;;;3.10;;
19623;SDS011;9959;49.798;9.928;2023-07-20T08:17:07;7.05;;;3.13;;
19623;SDS011;9959;49.798;9.928;2023-07-20T08:19:35;6.50;;;2.90;;
19623;SDS011;9959;49.798;9.928;2023-07-20T08:22:04;7.82;;;2.97;;
19623;SDS011;9959;49.798;9.928;2023-07-20T08:24:31;9.43;;;2.90;;
19623;SDS011;9959;49.798;9.928;2023-07-20T08:26:58;15.27;;;5.80;;
19623;SDS011;9959;49.798;9.928;2023-07-20T08:29:25;6.05;;;3.13;;
19623;SDS011;9959;49.798;9.928;2023-07-20T08:31:51;6.38;;;3.25;;
19623;SDS011;9959;49.798;9.928;2023-07-20T08:34:18;5.32;;;2.95;;
19623;SDS011;9959;49.798;9.928;2023-07-20T08:36:58;6.22;;;2.80;;
19623;SDS011;9959;49.798;9.928;2023-07-20T08:39:25;5.45;;;2.90;;
19623;SDS011;9959;49.798;9.928;2023-07-20T08:41:52;6.30;;;2.67;;
19623;SDS011;9959;49.798;9.928;2023-07-20T08:44:22;3.78;;;2.75;;
19623;SDS011;9959;49.798;9.928;2023-07-20T08:46:50;6.05;;;2.90;;
19623;SDS011;9959;49.798;9.928;2023-07-20T08:49:18;5.20;;;3.08;;
19623;SDS011;9959;49.798;9.928;2023-07-20T08:51:46;6.05;;;2.65;;
19623;SDS011;9959;49.798;9.928;2023-07-20T08:54:13;6.07;;;2.80;;
19623;SDS011;9959;49.798;9.928;2023-07-20T08:56:41;4.63;;;3.03;;
19623;SDS011;9959;49.798;9.928;2023-07-20T08:59:09;7.45;;;2.88;;
19623;SDS011;9959;49.798;9.928;2023-07-20T09:01:36;7.47;;;2.60;;
19623;SDS011;9959;49.798;9.928;2023-07-20T09:04:05;4.82;;;2.78;;
19623;SDS011;9959;49.798;9.928;2023-07-20T09:06:32;6.43;;;2.92;;
19623;SDS011;9959;49.798;9.928;2023-07-20T09:09:01;4.60;;;2.17;;
19623;SDS011;9959;49.798;9.928;2023-07-20T09:11:29;5.80;;;2.25;;
19623;SDS011;9959;49.798;9.928;2023-07-20T09:14:09;5.63;;;2.30;;
19623;SDS011;9959;49.798;9.928;2023-07-20T09:16:46;8.60;;;2.50;;
19623;SDS011;9959;49.798;9.928;2023-07-20T09:19:16;4.85;;;2.63;;
19623;SDS011;9959;49.798;9.928;2023-07-20T09:21:45;6.22;;;2.58;;
19623;SDS011;9959;49.798;9.928;2023-07-20T09:24:13;8.10;;;2.80;;
19623;SDS011;9959;49.798;9.928;2023-07-20T09:26:43;2.67;;;2.30;;
19623;SDS011;9959;49.798;9.928;2023-07-20T09:29:11;5.25;;;2.50;;
19623;SDS011;9959;49.798;9.928;2023-07-20T09:31:38;3.45;;;2.45;;
19623;SDS011;9959;49.798;9.928;2023-07-20T09:34:07;5.20;;;2.75;;
19623;SDS011;9959;49.798;9.928;2023-07-20T09:36:35;4.97;;;2.65;;
19623;SDS011;9959;49.798;9.928;2023-07-20T09:39:05;5.72;;;2.67;;
19623;SDS011;9959;49.798;9.928;2023-07-20T09:41:41;3.90;;;2.13;;
19623;SDS011;9959;49.798;9.928;2023-07-20T09:44:11;4.32;;;2.42;;
19623;SDS011;9959;49.798;9.928;2023-07-20T09:46:48;5.53;;;2.30;;
19623;SDS011;9959;49.798;9.928;2023-07-20T09:49:20;5.80;;;2.13;;
19623;SDS011;9959;49.798;9.928;2023-07-20T09:51:50;4.47;;;2.13;;
19623;SDS011;9959;49.798;9.928;2023-07-20T09:54:18;2.63;;;1.90;;
19623;SDS011;9959;49.798;9.928;2023-07-20T09:56:48;5.03;;;1.83;;
19623;SDS011;9959;49.798;9.928;2023-07-20T09:59:17;5.20;;;1.90;;
19623;SDS011;9959;49.798;9.928;2023-07-20T10:01:44;3.30;;;2.05;;
19623;SDS011;9959;49.798;9.928;2023-07-20T10:04:12;4.05;;;3.25;;
19623;SDS011;9959;49.798;9.928;2023-07-20T10:06:43;7.45;;;3.92;;
19623;SDS011;9959;49.798;9.928;2023-07-20T10:09:14;3.38;;;2.13;;
19623;SDS011;9959;49.798;9.928;2023-07-20T10:11:43;3.60;;;2.33;;
19623;SDS011;9959;49.798;9.928;2023-07-20T10:14:38;5.10;;;2.35;;
19623;SDS011;9959;49.798;9.928;2023-07-20T10:17:09;6.22;;;2.25;;
19623;SDS011;9959;49.798;9.928;2023-07-20T10:19:43;5.50;;;2.22;;
19623;SDS011;9959;49.798;9.928;2023-07-20T10:22:23;6.22;;;2.65;;
19623;SDS011;9959;49.798;9.928;2023-07-20T10:24:52;3.65;;;2.33;;
19623;SDS011;9959;49.798;9.928;2023-07-20T10:27:21;5.35;;;2.22;;
19623;SDS011;9959;49.798;9.928;2023-07-20T10:29:47;5.05;;;2.60;;
19623;SDS011;9959;49.798;9.928;2023-07-20T10:32:15;2.55;;;2.00;;
19623;SDS011;9959;49.798;9.928;2023-07-20T10:34:42;4.15;;;2.45;;
19623;SDS011;9959;49.798;9.928;2023-07-20T10:37:09;4.13;;;2.45;;
19623;SDS011;9959;49.798;9.928;2023-07-20T10:39:35;4.05;;;2.30;;
19623;SDS011;9959;49.798;9.928;2023-07-20T10:42:03;4.18;;;2.88;;
19623;SDS011;9959;49.798;9.928;2023-07-20T10:44:34;4.78;;;2.35;;
19623;SDS011;9959;49.798;9.928;2023-07-20T10:47:13;3.35;;;2.00;;
19623;SDS011;9959;49.798;9.928;2023-07-20T10:52:42;4.22;;;2.13;;
19623;SDS011;9959;49.798;9.928;2023-07-20T10:55:15;6.85;;;3.03;;
19623;SDS011;9959;49.798;9.928;2023-07-20T10:58:05;4.68;;;2.75;;
19623;SDS011;9959;49.798;9.928;2023-07-20T11:00:33;3.72;;;2.33;;
19623;SDS011;9959;49.798;9.928;2023-07-20T11:03:00;8.48;;;2.63;;
19623;SDS011;9959;49.798;9.928;2023-07-20T11:05:39;5.90;;;2.42;;
19623;SDS011;9959;49.798;9.928;2023-07-20T11:08:11;5.45;;;2.08;;
19623;SDS011;9959;49.798;9.928;2023-07-20T11:10:39;4.80;;;2.30;;
19623;SDS011;9959;49.798;9.928;2023-07-20T11:13:22;4.55;;;2.50;;
19623;SDS011;9959;49.798;9.928;2023-07-20T11:18:27;4.60;;;2.03;;
19623;SDS011;9959;49.798;9.928;2023-07-20T11:20:54;4.15;;;2.33;;
19623;SDS011;9959;49.798;9.928;2023-07-20T11:23:22;4.25;;;2.30;;
19623;SDS011;9959;49.798;9.928;2023-07-20T11:25:49;3.47;;;2.35;;
19623;SDS011;9959;49.798;9.928;2023-07-20T11:28:17;3.92;;;2.00;;
19623;SDS011;9959;49.798;9.928;2023-07-20T11:30:43;2.72;;;2.00;;
19623;SDS011;9959;49.798;9.928;2023-07-20T11:33:10;3.25;;;1.83;;
19623;SDS011;9959;49.798;9.928;2023-07-20T11:35:44;7.28;;;2.30;;
19623;SDS011;9959;49.798;9.928;2023-07-20T11:38:14;4.32;;;2.10;;
19623;SDS011;9959;49.798;9.928;2023-07-20T11:40:45;5.75;;;2.40;;
19623;SDS011;9959;49.798;9.928;2023-07-20T11:43:13;5.72;;;2.65;;
19623;SDS011;9959;49.798;9.928;2023-07-20T11:45:44;2.65;;;1.77;;
19623;SDS011;9959;49.798;9.928;2023-07-20T11:48:15;2.80;;;2.05;;
19623;SDS011;9959;49.798;9.928;2023-07-20T11:50:43;2.67;;;2.17;;
19623;SDS011;9959;49.798;9.928;2023-07-20T11:53:10;2.35;;;2.13;;
19623;SDS011;9959;49.798;9.928;2023-07-20T11:55:39;3.38;;;2.13;;
19623;SDS011;9959;49.798;9.928;2023-07-20T11:58:08;2.45;;;2.10;;
19623;SDS011;9959;49.798;9.928;2023-07-20T12:00:38;2.08;;;1.70;;
19623;SDS011;9959;49.798;9.928;2023-07-20T12:03:06;4.53;;;2.08;;
19623;SDS011;9959;49.798;9.928;2023-07-20T12:05:34;2.10;;;1.58;;
19623;SDS011;9959;49.798;9.928;2023-07-20T12:08:21;2.88;;;2.08;;
19623;SDS011;9959;49.798;9.928;2023-07-20T12:10:48;7.00;;;2.30;;
19623;SDS011;9959;49.798;9.928;2023-07-20T12:13:16;2.35;;;1.60;;
19623;SDS011;9959;49.798;9.928;2023-07-20T12:15:43;2.70;;;2.00;;
19623;SDS011;9959;49.798;9.928;2023-07-20T12:18:10;3.70;;;2.50;;
19623;SDS011;9959;49.798;9.928;2023-07-20T12:20:37;5.63;;;2.22;;
19623;SDS011;9959;49.798;9.928;2023-07-20T12:23:08;3.05;;;1.98;;
19623;SDS011;9959;49.798;9.928;2023-07-20T12:25:37;4.47;;;1.92;;
19623;SDS011;9959;49.798;9.928;2023-07-20T12:28:08;5.07;;;2.50;;
19623;SDS011;9959;49.798;9.928;2023-07-20T12:30:40;9.52;;;2.33;;
19623;SDS011;9959;49.798;9.928;2023-07-20T12:33:08;2.53;;;2.17;;
19623;SDS011;9959;49.798;9.928;2023-07-20T12:35:35;2.13;;;1.70;;
19623;SDS011;9959;49.798;9.928;2023-07-20T12:38:02;4.15;;;2.05;;
19623;SDS011;9959;49.798;9.928;2023-07-20T12:40:29;2.03;;;1.80;;
19623;SDS011;9959;49.798;9.928;2023-07-20T12:42:57;2.72;;;1.92;;
19623;SDS011;9959;49.798;9.928;2023-07-20T12:45:24;3.20;;;1.80;;
19623;SDS011;9959;49.798;9.928;2023-07-20T12:47:51;2.90;;;2.00;;
19623;SDS011;9959;49.798;9.928;2023-07-20T12:50:18;3.15;;;1.90;;
19623;SDS011;9959;49.798;9.928;2023-07-20T12:52:48;2.20;;;2.00;;
19623;SDS011;9959;49.798;9.928;2023-07-20T12:55:15;2.08;;;1.88;;
19623;SDS011;9959;49.798;9.928;2023-07-20T12:57:42;4.03;;;1.85;;
19623;SDS011;9959;49.798;9.928;2023-07-20T13:00:10;2.88;;;2.05;;
19623;SDS011;9959;49.798;9.928;2023-07-20T13:02:38;1.95;;;1.75;;
19623;SDS011;9959;49.798;9.928;2023-07-20T13:05:05;1.92;;;1.80;;
19623;SDS011;9959;49.798;9.928;2023-07-20T13:07:33;3.08;;;2.00;;
19623;SDS011;9959;49.798;9.928;2023-07-20T13:10:04;5.15;;;1.88;;
19623;SDS011;9959;49.798;9.928;2023-07-20T13:12:32;3.47;;;2.15;;
19623;SDS011;9959;49.798;9.928;2023-07-20T13:15:01;5.47;;;2.67;;
19623;SDS011;9959;49.798;9.928;2023-07-20T13:17:28;2.22;;;2.03;;
19623;SDS011;9959;49.798;9.928;2023-07-20T13:19:55;2.95;;;2.00;;
19623;SDS011;9959;49.798;9.928;2023-07-20T13:22:22;2.20;;;2.00;;
19623;SDS011;9959;49.798;9.928;2023-07-20T13:24:50;1.70;;;1.60;;
19623;SDS011;9959;49.798;9.928;2023-07-20T13:27:17;2.53;;;1.95;;
19623;SDS011;9959;49.798;9.928;2023-07-20T13:29:45;5.63;;;1.90;;
19623;SDS011;9959;49.798;9.928;2023-07-20T13:32:14;4.03;;;1.83;;
19623;SDS011;9959;49.798;9.928;2023-07-20T13:34:42;3.28;;;2.00;;
19623;SDS011;9959;49.798;9.928;2023-07-20T13:37:14;4.03;;;2.20;;
19623;SDS011;9959;49.798;9.928;2023-07-20T13:39:42;2.92;;;1.88;;
19623;SDS011;9959;49.798;9.928;2023-07-20T13:42:10;2.60;;;2.03;;
19623;SDS011;9959;49.798;9.928;2023-07-20T13:44:39;2.25;;;2.05;;
19623;SDS011;9959;49.798;9.928;2023-07-20T13:47:06;2.72;;;1.90;;
19623;SDS011;9959;49.798;9.928;2023-07-20T13:49:35;3.72;;;1.90;;
19623;SDS011;9959;49.798;9.928;2023-07-20T13:52:13;4.63;;;2.08;;
19623;SDS011;9959;49.798;9.928;2023-07-20T13:54:43;2.38;;;1.63;;
19623;SDS011;9959;49.798;9.928;2023-07-20T13:57:13;3.65;;;2.78;;
19623;SDS011;9959;49.798;9.928;2023-07-20T13:59:41;2.65;;;1.92;;
19623;SDS011;9959;49.798;9.928;2023-07-20T14:02:09;3.38;;;1.83;;
19623;SDS011;9959;49.798;9.928;2023-07-20T14:04:39;2.20;;;1.80;;
19623;SDS011;9959;49.798;9.928;2023-07-20T14:07:08;1.73;;;1.63;;
19623;SDS011;9959;49.798;9.928;2023-07-20T14:09:35;2.22;;;1.88;;
19623;SDS011;9959;49.798;9.928;2023-07-20T14:12:03;2.47;;;1.58;;
19623;SDS011;9959;49.798;9.928;2023-07-20T14:14:33;5.00;;;1.90;;
19623;SDS011;9959;49.798;9.928;2023-07-20T14:17:00;2.00;;;1.80;;
19623;SDS011;9959;49.798;9.928;2023-07-20T14:19:27;2.55;;;2.28;;
19623;SDS011;9959;49.798;9.928;2023-07-20T14:21:53;2.45;;;1.83;;
19623;SDS011;9959;49.798;9.928;2023-07-20T14:24:21;4.25;;;1.73;;
19623;SDS011;9959;49.798;9.928;2023-07-20T14:26:48;3.92;;;2.17;;
19623;SDS011;9959;49.798;9.928;2023-07-20T14:29:17;3.25;;;1.65;;
19623;SDS011;9959;49.798;9.928;2023-07-20T14:31:45;4.70;;;2.08;;
19623;SDS011;9959;49.798;9.928;2023-07-20T14:34:15;3.78;;;1.65;;
19623;SDS011;9959;49.798;9.928;2023-07-20T14:36:45;2.95;;;1.90;;
19623;SDS011;9959;49.798;9.928;2023-07-20T14:39:12;3.85;;;2.40;;
19623;SDS011;9959;49.798;9.928;2023-07-20T14:41:39;2.78;;;2.10;;
19623;SDS011;9959;49.798;9.928;2023-07-20T14:44:06;2.35;;;1.80;;
19623;SDS011;9959;49.798;9.928;2023-07-20T14:46:33;2.28;;;1.98;;
19623;SDS011;9959;49.798;9.928;2023-07-20T14:49:00;5.45;;;1.90;;
19623;SDS011;9959;49.798;9.928;2023-07-20T14:51:27;3.17;;;1.90;;
19623;SDS011;9959;49.798;9.928;2023-07-20T14:54:01;3.22;;;1.80;;
19623;SDS011;9959;49.798;9.928;2023-07-20T14:56:28;4.93;;;3.03;;
19623;SDS011;9959;49.798;9.928;2023-07-20T14:58:55;3.47;;;2.00;;
19623;SDS011;9959;49.798;9.928;2023-07-20T15:01:24;3.13;;;2.10;;
19623;SDS011;9959;49.798;9.928;2023-07-20T15:03:51;2.65;;;1.70;;
19623;SDS011;9959;49.798;9.928;2023-07-20T15:06:24;3.78;;;1.90;;
19623;SDS011;9959;49.798;9.928;2023-07-20T15:08:52;2.47;;;2.15;;
19623;SDS011;9959;49.798;9.928;2023-07-20T15:11:19;3.72;;;1.80;;
19623;SDS011;9959;49.798;9.928;2023-07-20T15:13:46;2.85;;;2.05;;
19623;SDS011;9959;49.798;9.928;2023-07-20T15:16:13;3.60;;;1.70;;
19623;SDS011;9959;49.798;9.928;2023-07-20T15:18:40;4.60;;;1.98;;
19623;SDS011;9959;49.798;9.928;2023-07-20T15:21:14;7.18;;;2.47;;
19623;SDS011;9959;49.798;9.928;2023-07-20T15:23:41;1.88;;;1.77;;
19623;SDS011;9959;49.798;9.928;2023-07-20T15:26:09;3.38;;;2.03;;